Fontainebleau, Mississippi
Current Conditions -  °F | °C
As of 8:58 AM on Thursday 23 Oct 2014 (Local Time) from KBIX Reporting Station
Clear Clear  
Wind Chill: 56°   Ceiling: Unl
Heat Index: 56°   Visibility: 10mi
Dew Point: 45°   Wind: 9mph
Humidity: 67%   Direction: 50°NE
Pressure: 30.12"   Gusts: NA
Location:  30.418°N, 88.7558°W
Report Text: KBIX 231358Z AUTO 05008KT 10SM CLR 14/07 A3012 RMK AO2 SLP203 T01350074
Loading
Personal Weather Stations






























Interactive Weather Map
Tropical Storm Tracking
New forecast layout! Learn more

10-Day Weather Forecast

Advertisements
Track Severe Weather on mobile